createdAt,value
2018-05-21T00:03:43.057Z,15.1
2018-05-21T00:08:42.939Z,15.1
2018-05-21T00:13:55.707Z,15.2
2018-05-21T00:18:55.619Z,15.1
2018-05-21T00:23:55.441Z,15.1
2018-05-21T00:28:55.563Z,15
2018-05-21T00:33:55.600Z,15.1
2018-05-21T00:38:57.359Z,15
2018-05-21T00:43:57.546Z,15
2018-05-21T00:48:57.936Z,14.9
2018-05-21T00:53:57.368Z,14.9
2018-05-21T00:59:12.978Z,14.8
2018-05-21T01:04:12.927Z,14.8
2018-05-21T01:09:12.880Z,14.8
2018-05-21T01:14:13.183Z,14.7
2018-05-21T01:19:13.002Z,14.7
2018-05-21T01:24:13.053Z,14.7
2018-05-21T01:29:13.105Z,14.6
2018-05-21T01:34:13.562Z,14.6
2018-05-21T01:39:13.226Z,14.6
2018-05-21T01:44:26.531Z,14.6
2018-05-21T01:49:26.428Z,14.6
2018-05-21T01:54:26.491Z,14.5
2018-05-21T01:59:26.504Z,14.5
2018-05-21T02:04:26.433Z,14.5
2018-05-21T02:09:26.487Z,14.5
2018-05-21T02:14:26.275Z,14.4
2018-05-21T02:19:27.904Z,14.4
2018-05-21T02:24:27.619Z,14.3
2018-05-21T02:29:40.500Z,14.3
2018-05-21T02:34:40.399Z,14.3
2018-05-21T02:39:40.215Z,14.2
2018-05-21T02:44:40.443Z,14.2
2018-05-21T02:49:40.447Z,14.2
2018-05-21T02:54:41.247Z,14.1
2018-05-21T02:59:40.429Z,14.1
2018-05-21T03:04:42.506Z,14.1
2018-05-21T03:09:42.438Z,14
2018-05-21T03:14:54.650Z,14
2018-05-21T03:19:54.592Z,13.9
2018-05-21T03:24:54.555Z,13.9
2018-05-21T03:29:54.564Z,13.9
2018-05-21T03:34:54.828Z,13.9
2018-05-21T03:39:54.734Z,13.8
2018-05-21T03:44:54.783Z,13.9
2018-05-21T03:49:55.429Z,13.8
2018-05-21T03:54:55.320Z,13.8
2018-05-21T04:00:07.234Z,13.8
2018-05-21T04:05:07.193Z,13.8
2018-05-21T04:10:07.157Z,13.9
2018-05-21T04:15:07.189Z,14.1
2018-05-21T04:20:06.977Z,14.2
2018-05-21T04:25:06.979Z,14.3
2018-05-21T04:30:06.983Z,14.5
2018-05-21T04:35:10.257Z,14.6
2018-05-21T04:40:09.980Z,14.7
2018-05-21T04:45:22.773Z,14.9
2018-05-21T04:50:22.497Z,15
2018-05-21T04:55:22.718Z,15.3
2018-05-21T05:00:22.851Z,15.3
2018-05-21T05:05:22.721Z,15.4
2018-05-21T05:10:22.608Z,15.4
2018-05-21T05:15:22.827Z,15.6
2018-05-21T05:20:23.624Z,15.7
2018-05-21T05:25:23.524Z,15.5
2018-05-21T05:30:36.338Z,15.3
2018-05-21T05:35:36.263Z,15.5
2018-05-21T05:40:36.168Z,15.6
2018-05-21T05:45:36.236Z,15.3
2018-05-21T05:50:36.340Z,15.2
2018-05-21T05:55:36.306Z,15
2018-05-21T06:00:36.227Z,14.9
2018-05-21T06:05:40.353Z,14.8
2018-05-21T06:10:40.091Z,14.8
2018-05-21T06:15:49.956Z,14.8
2018-05-21T06:20:49.675Z,15.1
2018-05-21T06:25:49.703Z,15.4
2018-05-21T06:30:49.844Z,15.3
2018-05-21T06:35:49.851Z,15.4
2018-05-21T06:40:49.851Z,15.6
2018-05-21T06:45:49.854Z,15.8
2018-05-21T06:50:50.120Z,16.4
2018-05-21T06:55:50.120Z,16.8
2018-05-21T07:01:02.137Z,17.4
2018-05-21T07:06:01.853Z,17.7
2018-05-21T07:11:02.012Z,17.3
2018-05-21T07:16:01.862Z,17.6
2018-05-21T07:21:01.858Z,18.3
2018-05-21T07:26:01.859Z,18.4
2018-05-21T07:31:01.901Z,18.6
2018-05-21T07:36:01.905Z,18.5
2018-05-21T07:41:01.888Z,18.4
2018-05-21T07:46:13.797Z,18.9
2018-05-21T07:51:13.557Z,19.2
2018-05-21T07:56:13.496Z,19.5
2018-05-21T08:01:13.519Z,19.8
2018-05-21T08:06:13.634Z,19.8
2018-05-21T08:11:13.688Z,20.3
2018-05-21T08:16:13.989Z,20.5
2018-05-21T08:21:16.239Z,20.8
2018-05-21T08:26:15.989Z,20.8
2018-05-21T08:31:26.173Z,21
2018-05-21T08:36:25.916Z,20.8
2018-05-21T08:41:26.078Z,21.1
2018-05-21T08:46:26.107Z,21.1
2018-05-21T08:51:26.031Z,21.4
2018-05-21T08:56:25.956Z,21.7
2018-05-21T09:01:25.908Z,21.8
2018-05-21T09:06:27.213Z,22
2018-05-21T09:11:27.091Z,22
2018-05-21T09:16:42.629Z,21.9
2018-05-21T09:21:42.433Z,22.4
2018-05-21T09:26:42.269Z,22.3
2018-05-21T09:31:42.275Z,22.5
2018-05-21T09:36:42.206Z,22.5
2018-05-21T09:41:42.277Z,22.8
2018-05-21T09:46:42.252Z,22.6
2018-05-21T09:51:44.712Z,22.7
2018-05-21T09:56:44.450Z,23
2018-05-21T10:01:57.489Z,23
2018-05-21T10:06:57.380Z,22.9
2018-05-21T10:11:57.211Z,23.5
2018-05-21T10:16:57.336Z,23.6
2018-05-21T10:21:57.382Z,23.7
2018-05-21T10:26:57.219Z,23.3
2018-05-21T10:31:57.410Z,23.5
2018-05-21T10:36:57.848Z,23.5
2018-05-21T10:41:57.519Z,23.8
2018-05-21T10:47:12.098Z,23.3
2018-05-21T10:52:12.022Z,22.9
2018-05-21T10:57:11.770Z,23.5
2018-05-21T11:02:11.977Z,23
2018-05-21T11:07:11.821Z,23.3
2018-05-21T11:12:12.014Z,23.7
2018-05-21T11:17:11.796Z,22.8
2018-05-21T11:22:11.845Z,23.2
2018-05-21T11:27:11.824Z,23.4
2018-05-21T11:32:23.707Z,22.9
2018-05-21T11:37:23.556Z,23.1
2018-05-21T11:42:25.497Z,23.3
2018-05-21T11:47:23.685Z,23.1
2018-05-21T11:52:23.546Z,23.4
2018-05-21T11:57:23.601Z,23.3
2018-05-21T12:02:24.678Z,23.4
2018-05-21T12:07:24.178Z,23.4
2018-05-21T12:12:24.173Z,23.4
2018-05-21T12:17:36.910Z,23.5
2018-05-21T12:22:36.612Z,23.4
2018-05-21T12:27:36.828Z,23.6
2018-05-21T12:32:36.745Z,23.8
2018-05-21T12:37:36.643Z,23.9
2018-05-21T12:42:39.265Z,24
2018-05-21T12:47:39.255Z,24.1
2018-05-21T12:52:40.013Z,23.8
2018-05-21T12:57:40.002Z,23.8
2018-05-21T13:02:52.887Z,23.9
2018-05-21T13:07:52.767Z,23.7
2018-05-21T13:12:52.725Z,23.8
2018-05-21T13:17:52.949Z,23.8
2018-05-21T13:22:52.971Z,23.8
2018-05-21T13:27:52.891Z,23.8
2018-05-21T13:32:52.951Z,24.1
2018-05-21T13:37:53.730Z,23.8
2018-05-21T13:43:09.595Z,23.4
2018-05-21T13:48:00.192Z,23.7
2018-05-21T13:52:59.075Z,23.4
2018-05-21T13:57:59.268Z,23.1
2018-05-21T14:03:01.379Z,23.4
2018-05-21T14:08:01.276Z,23
2018-05-21T14:13:16.581Z,23
2018-05-21T14:18:16.381Z,23.1
2018-05-21T14:23:16.307Z,22.6
2018-05-21T14:28:16.307Z,22.7
2018-05-21T14:33:16.409Z,22.5
2018-05-21T14:38:16.321Z,22.4
2018-05-21T14:43:16.312Z,22.6
2018-05-21T14:48:16.360Z,22.4
2018-05-21T14:53:16.519Z,22.5
2018-05-21T14:58:16.607Z,22.5
2018-05-21T15:03:16.352Z,22.5
2018-05-21T15:08:16.334Z,22.5
2018-05-21T15:13:16.421Z,22.4
2018-05-21T15:18:16.429Z,22.3
2018-05-21T15:23:28.674Z,22.1
2018-05-21T15:28:28.546Z,21.9
2018-05-21T15:33:28.366Z,21.9
2018-05-21T15:38:28.386Z,21.9
2018-05-21T15:43:28.646Z,21.8
2018-05-21T15:48:28.432Z,21.7
2018-05-21T15:53:33.477Z,21.5
2018-05-21T15:58:34.585Z,21.6
2018-05-21T16:03:34.268Z,21.8
2018-05-21T16:08:45.446Z,21.6
2018-05-21T16:13:45.230Z,21.7
2018-05-21T16:18:45.177Z,21.7
2018-05-21T16:23:45.299Z,21.4
2018-05-21T16:28:45.318Z,21.4
2018-05-21T16:33:45.299Z,21.1
2018-05-21T16:38:45.334Z,21
2018-05-21T16:43:46.424Z,20.8
2018-05-21T16:48:46.165Z,20.8
2018-05-21T16:53:58.622Z,20.7
2018-05-21T16:58:58.292Z,20.8
2018-05-21T17:03:58.291Z,20.5
2018-05-21T17:08:58.314Z,20.3
2018-05-21T17:13:58.394Z,20.2
2018-05-21T17:18:58.343Z,20.3
2018-05-21T17:23:58.331Z,20.3
2018-05-21T17:28:58.329Z,20.3
2018-05-21T17:33:58.306Z,20.3
2018-05-21T17:39:09.974Z,20.2
2018-05-21T17:44:09.720Z,20.2
2018-05-21T17:49:09.762Z,20.1
2018-05-21T17:54:09.679Z,20.1
2018-05-21T17:59:09.915Z,20
2018-05-21T18:04:09.736Z,19.9
2018-05-21T18:09:09.733Z,19.7
2018-05-21T18:14:11.144Z,19.6
2018-05-21T18:19:09.767Z,19.5
2018-05-21T18:24:21.618Z,19.3
2018-05-21T18:29:21.360Z,19.2
2018-05-21T18:34:21.314Z,19.1
2018-05-21T18:39:21.347Z,19
2018-05-21T18:44:21.367Z,18.9
2018-05-21T18:49:21.343Z,18.8
2018-05-21T18:54:21.385Z,18.7
2018-05-21T18:59:26.455Z,18.6
2018-05-21T19:04:26.151Z,18.6
2018-05-21T19:09:36.952Z,18.5
2018-05-21T19:14:36.661Z,18.4
2018-05-21T19:19:36.873Z,18.3
2018-05-21T19:24:36.668Z,18.3
2018-05-21T19:29:36.681Z,18.2
2018-05-21T19:34:36.678Z,18.1
2018-05-21T19:39:36.689Z,18.1
2018-05-21T19:44:40.767Z,18
2018-05-21T19:49:40.515Z,17.9
2018-05-21T19:54:54.543Z,17.8
2018-05-21T19:59:54.303Z,17.8
2018-05-21T20:04:54.279Z,17.7
2018-05-21T20:09:54.569Z,17.6
2018-05-21T20:14:54.356Z,17.6
2018-05-21T20:19:54.479Z,17.5
2018-05-21T20:24:54.352Z,17.4
2018-05-21T20:29:56.122Z,17.3
2018-05-21T20:34:55.884Z,17.2
2018-05-21T20:40:06.583Z,17.1
2018-05-21T20:45:06.139Z,17.1
2018-05-21T20:50:06.618Z,17
2018-05-21T20:55:06.147Z,16.9
2018-05-21T21:00:06.161Z,16.8
2018-05-21T21:05:06.631Z,16.8
2018-05-21T21:10:06.641Z,16.7
2018-05-21T21:15:06.639Z,16.6
2018-05-21T21:20:06.620Z,16.5
2018-05-21T21:25:18.501Z,16.5
2018-05-21T21:30:18.206Z,16.4
2018-05-21T21:35:18.346Z,16.4
2018-05-21T21:40:18.699Z,16.3
2018-05-21T21:45:18.588Z,16.2
2018-05-21T21:50:18.669Z,16.1
2018-05-21T21:55:18.707Z,16.1
2018-05-21T22:00:20.562Z,16.1
2018-05-21T22:05:20.504Z,16.1
2018-05-21T22:10:31.521Z,16
2018-05-21T22:15:31.231Z,16
2018-05-21T22:20:31.467Z,15.9
2018-05-21T22:25:31.354Z,15.9
2018-05-21T22:30:31.416Z,15.8
2018-05-21T22:35:31.339Z,15.8
2018-05-21T22:40:31.380Z,15.7
2018-05-21T22:45:31.433Z,15.8
2018-05-21T22:50:31.602Z,15.7
2018-05-21T22:55:44.535Z,15.7
2018-05-21T23:00:44.428Z,15.6
2018-05-21T23:05:44.452Z,15.6
2018-05-21T23:10:44.495Z,15.6
2018-05-21T23:15:44.416Z,15.5
2018-05-21T23:20:44.450Z,15.5
2018-05-21T23:25:44.274Z,15.4
2018-05-21T23:30:44.942Z,15.4
2018-05-21T23:35:44.859Z,15.4
2018-05-21T23:40:57.604Z,15.3
2018-05-21T23:45:57.632Z,15.2
2018-05-21T23:50:57.354Z,15.1
2018-05-21T23:55:57.487Z,14.9
